Terminal Aerodrome Forecast
Issued by NWS Boston, MA

Home | Current Version | Previous Version | Text Only | Print | Product List | Glossary On
Versions: 1 2 3 4 5 6 7 8 9 10 11 12 13 14 15 16 17 18 19 20 21 22 23 24 25 26 27 28 29 30 31 32 33 34 35 36 37 38 39
000
FTUS41 KBOX 031725
TAFBOS
TAF
KBOS 031725Z 0318/0424 20014G24KT P6SM FEW050
     FM040300 20009KT P6SM SCT150
     FM040800 21008KT 6SM BR VCSH BKN015
     FM041100 22008KT P6SM VCSH BKN025
     FM041300 22008KT P6SM VCSH BKN050
     FM042200 23009KT P6SM SCT250=

USA.gov is the U.S. government's official web portal to all federal, state and local government web resources and services.